createdAt,value
2022-12-11T00:00:44.043Z,100016.72
2022-12-11T00:03:15.661Z,100006.94
2022-12-11T00:05:43.466Z,100006.34
2022-12-11T00:08:09.898Z,100000.34
2022-12-11T00:10:38.050Z,100004.13
2022-12-11T00:13:04.963Z,100022.38
2022-12-11T00:15:31.467Z,100022.91
2022-12-11T00:17:57.814Z,100019.94
2022-12-11T00:20:24.290Z,100025.22
2022-12-11T00:22:50.609Z,100023.09
2022-12-11T00:25:17.035Z,100021.22
2022-12-11T00:27:46.058Z,100016.47
2022-12-11T00:30:13.010Z,100023.53
2022-12-11T00:32:39.349Z,100017.44
2022-12-11T00:35:05.970Z,100019.16
2022-12-11T00:37:32.398Z,100003.50
2022-12-11T00:39:58.847Z,100012.00
2022-12-11T00:42:25.136Z,100026.19
2022-12-11T00:44:51.553Z,100017.53
2022-12-11T00:47:17.841Z,100022.16
2022-12-11T00:49:49.581Z,100022.34
2022-12-11T00:52:17.671Z,100019.34
2022-12-11T00:54:46.487Z,100014.50
2022-12-11T00:57:12.768Z,100017.25
2022-12-11T00:59:39.337Z,100026.47
2022-12-11T01:02:05.634Z,100025.91
2022-12-11T01:04:32.153Z,100024.53
2022-12-11T01:06:58.499Z,100025.22
2022-12-11T01:09:43.666Z,100027.75
2022-12-11T01:12:10.045Z,100005.31
2022-12-11T01:14:36.421Z,100001.81
2022-12-11T01:17:02.805Z,100017.84
2022-12-11T01:19:29.358Z,100003.59
2022-12-11T01:21:55.772Z,100016.13
2022-12-11T01:24:22.354Z,100021.97
2022-12-11T01:26:48.685Z,100016.13
2022-12-11T01:29:15.062Z,100025.94
2022-12-11T01:31:41.455Z,100014.19
2022-12-11T01:34:07.788Z,100018.25
2022-12-11T01:36:34.081Z,100013.69
2022-12-11T01:39:00.641Z,100008.56
2022-12-11T01:41:27.077Z,100026.16
2022-12-11T01:44:28.594Z,100018.13
2022-12-11T01:46:54.865Z,100010.81
2022-12-11T01:49:25.228Z,100023.47
2022-12-11T01:52:15.192Z,100016.16
2022-12-11T01:54:43.431Z,100013.06
2022-12-11T01:57:12.335Z,100025.78
2022-12-11T01:59:41.022Z,100012.19
2022-12-11T02:02:22.431Z,100018.94
2022-12-11T02:04:49.333Z,100022.88
2022-12-11T02:07:15.757Z,100028.63
2022-12-11T02:09:45.775Z,100012.34
2022-12-11T02:12:30.137Z,100026.28
2022-12-11T02:15:11.994Z,100030.31
2022-12-11T02:18:07.419Z,100025.06
2022-12-11T02:20:37.557Z,100036.03
2022-12-11T02:23:24.985Z,100029.00
2022-12-11T02:26:00.182Z,100030.06
2022-12-11T02:28:41.199Z,100031.81
2022-12-11T02:31:19.279Z,100034.00
2022-12-11T02:34:15.364Z,100041.88
2022-12-11T02:36:45.349Z,100028.38
2022-12-11T02:39:14.933Z,100035.44
2022-12-11T02:41:46.873Z,100032.13
2022-12-11T02:44:15.903Z,100037.22
2022-12-11T02:46:44.218Z,100038.13
2022-12-11T02:49:12.570Z,100021.13
2022-12-11T02:51:43.418Z,100021.38
2022-12-11T02:54:18.039Z,100025.16
2022-12-11T02:56:56.418Z,100021.09
2022-12-11T02:59:45.352Z,100019.56
2022-12-11T03:02:13.703Z,100016.00
2022-12-11T03:04:41.078Z,100022.59
2022-12-11T03:07:12.209Z,100015.09
2022-12-11T03:09:40.308Z,100018.59
2022-12-11T03:12:09.888Z,100015.53
2022-12-11T03:14:38.403Z,100012.69
2022-12-11T03:17:23.870Z,100032.47
2022-12-11T03:19:58.210Z,100024.63
2022-12-11T03:22:33.798Z,100027.03
2022-12-11T03:25:05.200Z,100032.50
2022-12-11T03:27:42.212Z,100022.34
2022-12-11T03:30:14.115Z,100024.22
2022-12-11T03:32:58.008Z,100032.25
2022-12-11T03:35:35.554Z,100029.81
2022-12-11T03:38:07.566Z,100026.53
2022-12-11T03:40:36.434Z,100014.97
2022-12-11T03:43:04.807Z,100027.75
2022-12-11T03:45:33.365Z,100036.34
2022-12-11T03:48:01.823Z,100022.63
2022-12-11T03:50:31.657Z,100024.06
2022-12-11T03:52:58.587Z,100023.84
2022-12-11T03:55:26.491Z,100017.25
2022-12-11T03:57:52.953Z,100023.19
2022-12-11T04:00:21.744Z,100018.81
2022-12-11T04:03:11.331Z,100015.06
2022-12-11T04:05:48.621Z,100021.72
2022-12-11T04:08:16.036Z,100019.88
2022-12-11T04:10:43.082Z,100014.50
2022-12-11T04:13:10.520Z,100018.41
2022-12-11T04:15:38.306Z,100015.22
2022-12-11T04:18:23.845Z,100018.00
2022-12-11T04:21:12.093Z,100019.53
2022-12-11T04:23:56.798Z,100014.25
2022-12-11T04:26:23.154Z,100009.56
2022-12-11T04:28:50.371Z,100026.13
2022-12-11T04:31:21.918Z,100013.13
2022-12-11T04:33:48.929Z,100013.03
2022-12-11T04:36:15.986Z,100017.59
2022-12-11T04:38:42.305Z,100014.41
2022-12-11T04:41:12.231Z,100016.84
2022-12-11T04:43:39.055Z,100013.50
2022-12-11T04:46:20.657Z,100008.72
2022-12-11T04:48:51.184Z,99997.47
2022-12-11T04:51:20.409Z,100008.75
2022-12-11T04:53:46.797Z,100007.78
2022-12-11T04:56:15.734Z,100013.38
2022-12-11T04:58:43.354Z,100008.25
2022-12-11T05:01:13.063Z,100002.81
2022-12-11T05:03:40.479Z,100015.06
2022-12-11T05:06:08.607Z,99978.53
2022-12-11T05:08:36.659Z,100001.19
2022-12-11T05:11:05.573Z,100006.22
2022-12-11T05:13:32.368Z,100008.81
2022-12-11T05:15:59.245Z,100007.13
2022-12-11T05:18:30.655Z,100011.25
2022-12-11T05:21:01.895Z,99998.91
2022-12-11T05:23:29.240Z,100005.00
2022-12-11T05:26:01.915Z,99998.19
2022-12-11T05:28:30.042Z,99982.53
2022-12-11T05:30:57.703Z,99982.69
2022-12-11T05:33:24.981Z,99982.34
2022-12-11T05:35:51.685Z,99989.97
2022-12-11T05:38:18.345Z,99980.91
2022-12-11T05:40:45.014Z,99969.00
2022-12-11T05:43:11.359Z,99971.22
2022-12-11T05:45:38.271Z,99971.78
2022-12-11T05:48:04.715Z,99984.38
2022-12-11T05:50:30.989Z,99974.81
2022-12-11T05:52:57.346Z,99979.03
2022-12-11T05:55:23.638Z,99959.53
2022-12-11T05:57:49.910Z,99966.34
2022-12-11T06:00:16.501Z,99981.75
2022-12-11T06:02:43.035Z,99966.03
2022-12-11T06:05:09.878Z,99986.78
2022-12-11T06:07:36.279Z,99986.72
2022-12-11T06:10:02.585Z,99981.53
2022-12-11T06:12:29.745Z,99980.72
2022-12-11T06:14:56.320Z,99982.50
2022-12-11T06:17:22.722Z,99963.34
2022-12-11T06:19:49.018Z,99969.66
2022-12-11T06:22:15.334Z,99972.91
2022-12-11T06:24:41.692Z,99973.97
2022-12-11T06:27:08.157Z,99981.84
2022-12-11T06:29:34.635Z,99980.06
2022-12-11T06:32:01.020Z,99980.13
2022-12-11T06:34:27.437Z,99975.25
2022-12-11T06:36:53.701Z,99966.41
2022-12-11T06:39:20.252Z,99970.16
2022-12-11T06:41:46.589Z,99946.28
2022-12-11T06:44:12.942Z,99959.94
2022-12-11T06:46:39.299Z,99966.34
2022-12-11T06:49:05.599Z,99957.81
2022-12-11T06:51:32.691Z,99973.53
2022-12-11T06:53:59.016Z,99972.41
2022-12-11T06:56:25.423Z,99946.53
2022-12-11T06:58:52.341Z,99966.41
2022-12-11T07:01:23.040Z,99968.28
2022-12-11T07:03:52.047Z,99959.50
2022-12-11T07:06:18.378Z,99968.78
2022-12-11T07:08:45.423Z,99967.34
2022-12-11T07:11:14.142Z,99969.03
2022-12-11T07:13:42.097Z,99969.13
2022-12-11T07:16:12.986Z,99978.34
2022-12-11T07:18:43.933Z,99964.16
2022-12-11T07:21:14.186Z,99972.19
2022-12-11T07:23:40.839Z,99966.06
2022-12-11T07:26:09.728Z,99973.63
2022-12-11T07:28:36.484Z,99983.13
2022-12-11T07:31:07.566Z,99977.94
2022-12-11T07:33:34.544Z,99967.16
2022-12-11T07:36:04.340Z,99965.53
2022-12-11T07:38:30.815Z,99965.91
2022-12-11T07:41:01.703Z,99969.56
2022-12-11T07:43:28.258Z,99973.84
2022-12-11T07:45:54.601Z,99988.91
2022-12-11T07:48:20.926Z,99965.97
2022-12-11T07:50:47.283Z,99988.31
2022-12-11T07:53:13.578Z,99984.19
2022-12-11T07:55:39.906Z,99978.63
2022-12-11T07:58:06.215Z,99979.81
2022-12-11T08:00:32.567Z,99970.34
2022-12-11T08:02:58.909Z,99974.75
2022-12-11T08:05:25.221Z,99984.19
2022-12-11T08:07:51.560Z,99980.59
2022-12-11T08:10:18.137Z,99993.69
2022-12-11T08:12:44.421Z,99988.06
2022-12-11T08:15:11.597Z,99995.84
2022-12-11T08:17:40.164Z,99999.34
2022-12-11T08:20:08.186Z,99999.50
2022-12-11T08:22:35.532Z,100003.81
2022-12-11T08:25:02.065Z,100008.41
2022-12-11T08:27:30.502Z,99997.06
2022-12-11T08:29:56.827Z,99983.31
2022-12-11T08:32:23.268Z,99986.78
2022-12-11T08:34:51.409Z,99988.78
2022-12-11T08:37:17.731Z,99989.59
2022-12-11T08:39:44.916Z,99988.34
2022-12-11T08:42:11.198Z,99995.56
2022-12-11T08:44:37.580Z,99989.97
2022-12-11T08:47:03.992Z,99997.03
2022-12-11T08:49:34.422Z,100000.91
2022-12-11T08:52:01.118Z,99995.19
2022-12-11T08:54:27.414Z,99999.97
2022-12-11T08:56:57.993Z,99985.91
2022-12-11T08:59:25.649Z,99981.88
2022-12-11T09:01:52.318Z,99973.22
2022-12-11T09:04:18.695Z,99972.69
2022-12-11T09:06:44.993Z,99982.00
2022-12-11T09:09:11.337Z,99976.94
2022-12-11T09:11:37.815Z,99975.84
2022-12-11T09:14:07.823Z,99960.97
2022-12-11T09:16:37.702Z,99982.03
2022-12-11T09:19:04.251Z,99965.97
2022-12-11T09:21:30.886Z,99973.44
2022-12-11T09:24:00.065Z,99974.47
2022-12-11T09:26:27.794Z,99969.31
2022-12-11T09:28:54.824Z,99972.09
2022-12-11T09:31:24.931Z,99981.41
2022-12-11T09:33:56.294Z,99978.19
2022-12-11T09:36:23.399Z,99974.41
2022-12-11T09:38:49.875Z,99986.34
2022-12-11T09:41:21.859Z,99984.44
2022-12-11T09:44:12.968Z,99983.69
2022-12-11T09:46:40.562Z,99979.56
2022-12-11T09:49:24.901Z,99974.97
2022-12-11T09:52:05.935Z,99979.31
2022-12-11T09:54:32.864Z,99970.78
2022-12-11T09:57:29.623Z,99964.31
2022-12-11T10:00:13.746Z,99966.38
2022-12-11T10:02:54.985Z,99962.94
2022-12-11T10:06:02.679Z,99956.16
2022-12-11T10:08:38.879Z,99950.09
2022-12-11T10:11:30.218Z,99957.88
2022-12-11T10:14:25.950Z,99962.81
2022-12-11T10:16:57.723Z,99960.22
2022-12-11T10:19:29.978Z,99957.38
2022-12-11T10:21:57.750Z,99964.88
2022-12-11T10:25:10.040Z,99962.25
2022-12-11T10:27:34.979Z,99953.72
2022-12-11T10:30:15.947Z,99956.25
2022-12-11T10:32:53.440Z,99951.09
2022-12-11T10:35:33.068Z,99945.13
2022-12-11T10:38:12.032Z,99950.22
2022-12-11T10:40:42.752Z,99948.34
2022-12-11T10:43:09.055Z,99943.59
2022-12-11T10:45:36.238Z,99942.91
2022-12-11T10:48:13.158Z,99935.16
2022-12-11T10:50:39.905Z,99929.13
2022-12-11T10:53:06.213Z,99922.88
2022-12-11T10:55:45.228Z,99931.34
2022-12-11T10:58:24.083Z,99939.84
2022-12-11T11:01:13.962Z,99937.09
2022-12-11T11:03:58.655Z,99936.41
2022-12-11T11:06:26.009Z,99937.97
2022-12-11T11:08:55.202Z,99933.31
2022-12-11T11:11:34.469Z,99924.41
2022-12-11T11:14:18.087Z,99926.47
2022-12-11T11:16:46.863Z,99920.84
2022-12-11T11:19:27.011Z,99922.91
2022-12-11T11:21:56.393Z,99914.94
2022-12-11T11:24:53.696Z,99919.94
2022-12-11T11:27:45.649Z,99911.53
2022-12-11T11:30:56.511Z,99909.06
2022-12-11T11:33:24.260Z,99912.06
2022-12-11T11:35:53.534Z,99907.75
2022-12-11T11:38:23.757Z,99914.25
2022-12-11T11:41:15.549Z,99903.91
2022-12-11T11:43:54.641Z,99905.88
2022-12-11T11:46:46.059Z,99906.84
2022-12-11T11:49:28.085Z,99906.66
2022-12-11T11:52:08.118Z,99886.69
2022-12-11T11:54:39.179Z,99880.19
2022-12-11T11:57:32.910Z,99884.28
2022-12-11T12:00:31.866Z,99872.47
2022-12-11T12:03:10.511Z,99872.66
2022-12-11T12:05:50.248Z,99872.13
2022-12-11T12:08:25.619Z,99882.88
2022-12-11T12:11:01.498Z,99879.06
2022-12-11T12:13:50.407Z,99884.03
2022-12-11T12:19:41.501Z,99884.47
2022-12-11T12:22:35.695Z,99879.06
2022-12-11T12:25:30.125Z,99883.41
2022-12-11T12:28:03.788Z,99872.06
2022-12-11T12:30:40.113Z,99876.75
2022-12-11T12:33:34.654Z,99881.09
2022-12-11T12:36:26.068Z,99875.31
2022-12-11T12:39:21.129Z,99866.28
2022-12-11T12:42:07.763Z,99866.19
2022-12-11T12:44:47.274Z,99872.72
2022-12-11T12:47:17.270Z,99870.06
2022-12-11T12:49:49.165Z,99870.69
2022-12-11T12:52:17.473Z,99872.53
2022-12-11T12:55:07.190Z,99880.53
2022-12-11T12:57:34.981Z,99872.47
2022-12-11T13:00:01.353Z,99878.63
2022-12-11T13:02:28.228Z,99878.56
2022-12-11T13:05:07.333Z,99878.50
2022-12-11T13:07:33.963Z,99866.06
2022-12-11T13:10:29.201Z,99875.25
2022-12-11T13:12:56.464Z,99877.31
2022-12-11T13:15:41.060Z,99883.00
2022-12-11T13:18:32.470Z,99887.25
2022-12-11T13:20:59.201Z,99887.19
2022-12-11T13:23:32.245Z,99884.34
2022-12-11T13:26:04.207Z,99889.03
2022-12-11T13:28:45.403Z,99884.66
2022-12-11T13:31:14.492Z,99895.66
2022-12-11T13:33:49.668Z,99877.97
2022-12-11T13:36:24.086Z,99891.72
2022-12-11T13:38:55.214Z,99882.88
2022-12-11T13:41:22.379Z,99880.53
2022-12-11T13:43:50.454Z,99882.31
2022-12-11T13:46:25.226Z,99870.22
2022-12-11T13:49:00.768Z,99887.47
2022-12-11T13:51:30.201Z,99879.50
2022-12-11T13:54:23.207Z,99893.44
2022-12-11T13:57:15.239Z,99881.38
2022-12-11T13:59:46.501Z,99870.81
2022-12-11T14:02:22.038Z,99879.22
2022-12-11T14:04:51.541Z,99882.66
2022-12-11T14:07:26.868Z,99881.84
2022-12-11T14:09:59.261Z,99880.94
2022-12-11T14:12:25.820Z,99873.63
2022-12-11T14:14:56.852Z,99890.47
2022-12-11T14:17:26.753Z,99887.81
2022-12-11T14:19:54.857Z,99890.97
2022-12-11T14:22:24.194Z,99896.16
2022-12-11T14:24:53.024Z,99903.03
2022-12-11T14:27:20.105Z,99899.31
2022-12-11T14:29:46.972Z,99902.81
2022-12-11T14:32:20.370Z,99896.94
2022-12-11T14:34:49.445Z,99901.09
2022-12-11T14:37:17.693Z,99903.44
2022-12-11T14:39:55.020Z,99901.03
2022-12-11T14:42:31.039Z,99898.94
2022-12-11T14:45:13.838Z,99906.91
2022-12-11T14:47:43.495Z,99904.34
2022-12-11T14:50:19.300Z,99901.97
2022-12-11T14:52:58.371Z,99908.81
2022-12-11T14:55:32.527Z,99918.34
2022-12-11T14:58:03.093Z,99916.47
2022-12-11T15:00:32.366Z,99917.22
2022-12-11T15:03:02.082Z,99916.47
2022-12-11T15:05:29.236Z,99915.66
2022-12-11T15:07:59.939Z,99910.25
2022-12-11T15:10:35.578Z,99915.31
2022-12-11T15:13:03.534Z,99906.47
2022-12-11T15:15:32.815Z,99900.00
2022-12-11T15:18:02.980Z,99909.97
2022-12-11T15:20:30.533Z,99911.88
2022-12-11T15:23:01.039Z,99906.00
2022-12-11T15:25:29.341Z,99906.25
2022-12-11T15:27:59.571Z,99914.94
2022-12-11T15:30:31.535Z,99915.47
2022-12-11T15:33:09.796Z,99919.06
2022-12-11T15:35:38.226Z,99925.88
2022-12-11T15:38:04.950Z,99890.28
2022-12-11T15:40:31.792Z,99928.13
2022-12-11T15:43:02.003Z,99930.09
2022-12-11T15:45:28.899Z,99930.47
2022-12-11T15:47:55.543Z,99926.53
2022-12-11T15:50:26.366Z,99933.09
2022-12-11T15:52:54.533Z,99920.22
2022-12-11T15:55:22.888Z,99927.75
2022-12-11T15:57:54.097Z,99934.50
2022-12-11T16:00:21.179Z,99936.34
2022-12-11T16:02:48.013Z,99934.13
2022-12-11T16:05:14.788Z,99936.97
2022-12-11T16:07:41.406Z,99937.63
2022-12-11T16:10:13.635Z,99932.97
2022-12-11T16:12:39.961Z,99937.78
2022-12-11T16:15:06.799Z,99941.13
2022-12-11T16:17:33.173Z,99934.13
2022-12-11T16:19:59.538Z,99934.06
2022-12-11T16:22:25.865Z,99933.03
2022-12-11T16:24:55.747Z,99927.06
2022-12-11T16:27:23.327Z,99932.19
2022-12-11T16:29:49.946Z,99927.75
2022-12-11T16:32:16.427Z,99931.25
2022-12-11T16:34:42.760Z,99924.03
2022-12-11T16:37:15.662Z,99916.44
2022-12-11T16:39:42.906Z,99923.28
2022-12-11T16:42:09.218Z,99920.31
2022-12-11T16:44:39.568Z,99916.91
2022-12-11T16:47:08.755Z,99915.25
2022-12-11T16:49:35.047Z,99915.25
2022-12-11T16:52:01.364Z,99913.91
2022-12-11T16:54:27.658Z,99912.06
2022-12-11T16:56:53.966Z,99907.59
2022-12-11T16:59:20.238Z,99899.72
2022-12-11T17:01:46.657Z,99906.72
2022-12-11T17:04:12.959Z,99911.09
2022-12-11T17:06:39.286Z,99915.63
2022-12-11T17:09:05.768Z,99922.09
2022-12-11T17:11:32.156Z,99914.28
2022-12-11T17:13:59.907Z,99927.44
2022-12-11T17:16:29.038Z,99906.75
2022-12-11T17:18:55.476Z,99916.75
2022-12-11T17:21:22.438Z,99915.84
2022-12-11T17:23:49.583Z,99918.38
2022-12-11T17:26:16.818Z,99918.31
2022-12-11T17:28:43.585Z,99895.25
2022-12-11T17:31:14.195Z,99919.09
2022-12-11T17:33:40.656Z,99906.41
2022-12-11T17:36:08.358Z,99910.72
2022-12-11T17:38:34.800Z,99915.59
2022-12-11T17:41:06.068Z,99914.63
2022-12-11T17:43:32.379Z,99917.59
2022-12-11T17:45:58.751Z,99916.34
2022-12-11T17:48:25.124Z,99908.72
2022-12-11T17:50:52.707Z,99909.69
2022-12-11T17:53:21.250Z,99907.56
2022-12-11T17:55:48.747Z,99894.13
2022-12-11T17:58:21.745Z,99920.44
2022-12-11T18:00:51.105Z,99916.06
2022-12-11T18:03:18.526Z,99912.63
2022-12-11T18:05:47.902Z,99874.81
2022-12-11T18:08:16.731Z,99897.03
2022-12-11T18:10:43.997Z,99892.72
2022-12-11T18:13:10.471Z,99906.75
2022-12-11T18:15:37.750Z,99902.09
2022-12-11T18:18:04.942Z,99904.63
2022-12-11T18:20:33.155Z,99918.31
2022-12-11T18:23:00.305Z,99910.72
2022-12-11T18:25:27.052Z,99907.69
2022-12-11T18:27:55.054Z,99922.69
2022-12-11T18:30:23.058Z,99922.63
2022-12-11T18:32:49.849Z,99906.72
2022-12-11T18:35:16.680Z,99919.78
2022-12-11T18:37:43.102Z,99900.25
2022-12-11T18:40:11.911Z,99918.44
2022-12-11T18:42:38.683Z,99914.94
2022-12-11T18:45:06.797Z,99918.53
2022-12-11T18:47:33.380Z,99918.31
2022-12-11T18:50:05.574Z,99917.41
2022-12-11T18:52:33.914Z,99919.78
2022-12-11T18:55:00.208Z,99916.34
2022-12-11T18:57:26.539Z,99907.06
2022-12-11T18:59:53.417Z,99918.94
2022-12-11T19:02:20.868Z,99912.84
2022-12-11T19:04:47.277Z,99918.31
2022-12-11T19:07:13.582Z,99909.28
2022-12-11T19:09:43.498Z,99914.13
2022-12-11T19:12:12.677Z,99913.84
2022-12-11T19:14:39.551Z,99925.00
2022-12-11T19:17:05.882Z,99913.31
2022-12-11T19:19:32.284Z,99919.63
2022-12-11T19:21:58.676Z,99905.38
2022-12-11T19:24:25.539Z,99907.97
2022-12-11T19:26:52.251Z,99910.56
2022-12-11T19:29:28.072Z,99909.91
2022-12-11T19:31:58.020Z,99914.34
2022-12-11T19:34:25.402Z,99916.19
2022-12-11T19:36:51.860Z,99906.19
2022-12-11T19:39:19.580Z,99909.31
2022-12-11T19:41:46.235Z,99911.09
2022-12-11T19:44:12.636Z,99891.56
2022-12-11T19:46:39.648Z,99897.66
2022-12-11T19:49:06.205Z,99904.41
2022-12-11T19:51:36.582Z,99902.50
2022-12-11T19:54:04.389Z,99896.47
2022-12-11T19:56:31.968Z,99901.59
2022-12-11T19:59:00.533Z,99893.31
2022-12-11T20:01:30.867Z,99900.97
2022-12-11T20:04:00.305Z,99905.06
2022-12-11T20:06:28.463Z,99908.34
2022-12-11T20:08:54.883Z,99907.06
2022-12-11T20:11:21.401Z,99912.94
2022-12-11T20:13:48.776Z,99908.34
2022-12-11T20:16:16.484Z,99910.94
2022-12-11T20:18:43.081Z,99911.09
2022-12-11T20:21:13.182Z,99913.78
2022-12-11T20:23:39.698Z,99908.63
2022-12-11T20:26:14.525Z,99906.72
2022-12-11T20:28:41.496Z,99906.31
2022-12-11T20:31:16.391Z,99911.38
2022-12-11T20:33:46.564Z,99906.84
2022-12-11T20:36:15.565Z,99912.13
2022-12-11T20:38:42.021Z,99917.41
2022-12-11T20:41:11.054Z,99906.53
2022-12-11T20:43:38.799Z,99914.56
2022-12-11T20:46:06.760Z,99918.94
2022-12-11T20:48:33.752Z,99911.75
2022-12-11T20:51:01.768Z,99910.25
2022-12-11T20:53:31.015Z,99913.75
2022-12-11T20:55:57.411Z,99907.72
2022-12-11T20:58:23.794Z,99901.47
2022-12-11T21:00:50.281Z,99894.75
2022-12-11T21:03:16.984Z,99904.63
2022-12-11T21:05:45.004Z,99899.63
2022-12-11T21:08:12.208Z,99907.22
2022-12-11T21:10:43.030Z,99903.28
2022-12-11T21:13:09.442Z,99907.16
2022-12-11T21:15:39.935Z,99911.25
2022-12-11T21:18:07.725Z,99897.94
2022-12-11T21:20:35.511Z,99902.94
2022-12-11T21:23:02.842Z,99908.94
2022-12-11T21:25:29.446Z,99897.28
2022-12-11T21:27:55.859Z,99904.72
2022-12-11T21:30:22.163Z,99908.13
2022-12-11T21:32:48.581Z,99914.00
2022-12-11T21:35:15.038Z,99907.69
2022-12-11T21:37:41.772Z,99909.41
2022-12-11T21:40:09.223Z,99909.22
2022-12-11T21:42:35.564Z,99914.34
2022-12-11T21:47:49.578Z,99907.44
2022-12-11T21:50:16.608Z,99914.59
2022-12-11T21:52:42.954Z,99909.41
2022-12-11T21:55:11.998Z,99913.94
2022-12-11T21:57:38.494Z,99915.25
2022-12-11T22:00:05.773Z,99909.63
2022-12-11T22:02:35.993Z,99913.13
2022-12-11T22:05:05.994Z,99908.59
2022-12-11T22:07:32.337Z,99914.69
2022-12-11T22:09:58.651Z,99906.63
2022-12-11T22:12:28.232Z,99912.38
2022-12-11T22:14:54.582Z,99922.63
2022-12-11T22:17:21.141Z,99921.50
2022-12-11T22:19:47.562Z,99914.91
2022-12-11T22:22:14.036Z,99920.09
2022-12-11T22:24:40.955Z,99919.13
2022-12-11T22:27:07.405Z,99928.72
2022-12-11T22:29:34.790Z,99923.22
2022-12-11T22:32:01.466Z,99934.41
2022-12-11T22:34:27.741Z,99931.19
2022-12-11T22:36:54.111Z,99923.38
2022-12-11T22:39:20.547Z,99933.38
2022-12-11T22:41:46.928Z,99934.78
2022-12-11T22:44:16.992Z,99917.03
2022-12-11T22:46:49.488Z,99925.91
2022-12-11T22:49:16.558Z,99932.16
2022-12-11T22:51:42.837Z,99928.50
2022-12-11T22:54:09.402Z,99917.22
2022-12-11T22:56:35.705Z,99933.25
2022-12-11T22:59:02.286Z,99923.75
2022-12-11T23:01:28.927Z,99911.00
2022-12-11T23:03:55.267Z,99924.59
2022-12-11T23:06:24.590Z,99925.19
2022-12-11T23:08:52.760Z,99930.91
2022-12-11T23:11:31.905Z,99928.03
2022-12-11T23:13:58.321Z,99933.22
2022-12-11T23:16:25.785Z,99929.88
2022-12-11T23:18:53.042Z,99931.59
2022-12-11T23:21:20.003Z,99927.34
2022-12-11T23:23:46.375Z,99930.91
2022-12-11T23:26:13.484Z,99924.16
2022-12-11T23:28:41.313Z,99916.59
2022-12-11T23:31:08.795Z,99930.22
2022-12-11T23:33:35.207Z,99917.63
2022-12-11T23:36:02.294Z,99934.19
2022-12-11T23:38:28.952Z,99919.25
2022-12-11T23:40:55.460Z,99934.88
2022-12-11T23:43:22.278Z,99929.59
2022-12-11T23:45:48.984Z,99918.88
2022-12-11T23:48:15.565Z,99931.81
2022-12-11T23:50:42.551Z,99934.03
2022-12-11T23:53:09.311Z,99946.72
2022-12-11T23:55:38.046Z,99943.91
2022-12-11T23:58:04.378Z,99931.97
